Stations météo

Publicité
Briancon, France (7593): Température de l'air & dewpoint: 11.02.2019 16:00:00 - 17.02.2019 16:00:00 (CET)Briancon, France (7593): Vitesse du vent: 11.02.2019 16:00:00 - 17.02.2019 16:00:00 (CET)Briancon, France (7593): Direction du vent: 11.02.2019 16:00:00 - 17.02.2019 16:00:00 (CET)Briancon, France (7593): Quantités de précipitations: 11.02.2019 16:00:00 - 17.02.2019 16:00:00 (CET)
Date & Time tt [°C] td [°C] ff [km/h] ff [knt] dd rr [mm]
17.02.2019 16:00:00 13,9 -8,1 0 0 N 0,0
17.02.2019 15:00:00 16,8 -10,9 2 1 WSW 0,0
17.02.2019 14:00:00 14,6 -11,8 2 1 SW 0,0
17.02.2019 13:00:00 10,7 -8,1 0 0 N 0,0
17.02.2019 12:00:00 5,5 -7,7 2 1 NE 0,0
17.02.2019 11:00:00 1,9 -10,0 0 0 N 0,0
17.02.2019 10:00:00 -1,5 -11,1 2 1 S 0,0
17.02.2019 09:00:00 -2,5 -11,3 0 0 N 0,0
17.02.2019 08:00:00 -3,1 -11,6 0 0 N 0,0
17.02.2019 07:00:00 -3,7 -11,0 3 1 ENE 0,0
17.02.2019 06:00:00 -2,9 -10,9 2 1 E 0,0
17.02.2019 05:00:00 -3,0 -10,8 2 1 ENE 0,0
17.02.2019 04:00:00 -2,8 -10,4 2 1 SE 0,0
17.02.2019 03:00:00 -2,3 -9,9 0 0 N 0,0
17.02.2019 02:00:00 -2,2 -9,4 0 0 N 0,0
17.02.2019 01:00:00 -2,4 -9,1 3 1 ESE 0,0
17.02.2019 00:00:00 -1,4 -8,6 3 1 E 0,0
16.02.2019 23:00:00 -0,8 -8,0 2 1 ESE 0,0
16.02.2019 22:00:00 -0,1 -7,6 2 1 SE 0,0
16.02.2019 21:00:00 0,6 -7,4 3 2 NW 0,0
16.02.2019 20:00:00 1,6 -6,5 2 1 NE 0,0
16.02.2019 19:00:00 2,8 -6,1 3 1 ENE 0,0
16.02.2019 18:00:00 3,9 -4,8 0 0 N 0,0
16.02.2019 17:00:00 10,3 -7,0 3 2 N 0,0
16.02.2019 16:00:00 14,6 -7,5 2 1 WSW 0,0
16.02.2019 15:00:00 14,4 -9,0 5 3 WSW 0,0
16.02.2019 14:00:00 13,4 -8,5 0 0 N 0,0
16.02.2019 13:00:00 10,5 -8,7 0 0 N 0,0
16.02.2019 12:00:00 6,4 -7,3 2 1 NE 0,0
16.02.2019 11:00:00 2,8 -8,9 4 2 ENE 0,0
16.02.2019 10:00:00 -0,8 -9,9 0 0 N 0,0
16.02.2019 09:00:00 -1,9 -10,0 0 0 N 0,0
16.02.2019 08:00:00 -2,8 -10,4 2 1 ESE 0,0
16.02.2019 07:00:00 -3,0 -10,1 0 0 N 0,0
16.02.2019 06:00:00 -2,3 -10,1 2 1 S 0,0
16.02.2019 05:00:00 -2,5 -9,4 2 1 E 0,0
16.02.2019 04:00:00 -2,0 -9,6 2 1 SSE 0,0
16.02.2019 03:00:00 -1,1 -9,2 3 2 S 0,0
16.02.2019 02:00:00 -1,3 -9,0 2 1 SW 0,0
16.02.2019 01:00:00 -0,8 -7,8 0 0 N 0,0
16.02.2019 00:00:00 0,0 -8,0 0 0 N 0,0
15.02.2019 23:00:00 -0,1 -7,6 2 1 SE 0,0
15.02.2019 22:00:00 1,0 -7,0 2 1 SSE 0,0
15.02.2019 21:00:00 1,8 -6,8 2 1 SSE 0,0
15.02.2019 20:00:00 2,7 -6,4 4 2 E 0,0
15.02.2019 19:00:00 3,8 -6,5 3 2 ESE 0,0
15.02.2019 18:00:00 5,0 -5,1 3 2 SSE 0,0
15.02.2019 17:00:00 10,6 -9,2 16 9 NE 0,0
15.02.2019 16:00:00 12,9 -6,2 2 1 WSW 0,0
15.02.2019 15:00:00 14,3 -7,8 0 0 N 0,0
15.02.2019 14:00:00 13,6 -9,0 0 0 N 0,0
15.02.2019 13:00:00 10,8 -5,7 2 1 NE 0,0
15.02.2019 12:00:00 7,3 -4,8 0 0 N 0,0
15.02.2019 11:00:00 3,4 -7,1 0 0 N 0,0
15.02.2019 10:00:00 0,0 -8,2 0 0 N 0,0
15.02.2019 09:00:00 -0,8 -8,7 3 2 E 0,0
15.02.2019 08:00:00 -1,4 -9,1 0 0 N 0,0
15.02.2019 07:00:00 -1,5 -8,5 0 0 N 0,0
15.02.2019 06:00:00 -1,4 -8,8 0 0 N 0,0
15.02.2019 05:00:00 -1,2 -8,9 4 2 NE 0,0
15.02.2019 04:00:00 -1,2 -8,4 2 1 E 0,0
15.02.2019 03:00:00 -0,7 -8,6 2 1 SE 0,0
15.02.2019 02:00:00 -0,9 -8,6 2 1 SSE 0,0
15.02.2019 01:00:00 -0,2 -8,2 2 1 E 0,0
15.02.2019 00:00:00 0,2 -8,0 3 2 ENE 0,0
14.02.2019 23:00:00 0,7 -7,8 2 1 ESE 0,0
14.02.2019 22:00:00 0,5 -7,0 2 1 SE 0,0
14.02.2019 21:00:00 0,7 -6,4 0 0 N 0,0
14.02.2019 20:00:00 1,6 -5,8 3 2 S 0,0
14.02.2019 19:00:00 2,3 -5,4 2 1 E 0,0
14.02.2019 18:00:00 4,4 -4,9 5 3 E 0,0
14.02.2019 17:00:00 10,6 -5,4 0 0 N 0,0
14.02.2019 16:00:00 13,3 -6,3 2 1 WSW 0,0
14.02.2019 15:00:00 13,6 -6,1 4 2 SW 0,0
14.02.2019 14:00:00 14,1 -5,7 0 0 N 0,0
14.02.2019 13:00:00 9,6 -7,2 0 0 N 0,0
14.02.2019 12:00:00 6,3 -5,7 0 0 N 0,0
14.02.2019 11:00:00 2,2 -7,4 0 0 N 0,0
14.02.2019 10:00:00 -0,8 -8,0 5 3 NE 0,0
14.02.2019 09:00:00 -1,9 -8,2 4 2 NE -
14.02.2019 08:00:00 -2,9 -8,6 0 0 N 0,0
14.02.2019 07:00:00 -3,1 -8,4 2 1 SE 0,0
14.02.2019 06:00:00 -2,6 -8,9 2 1 ENE 0,0
14.02.2019 05:00:00 -2,7 -8,6 3 2 SSW 0,0
14.02.2019 04:00:00 -2,8 -8,9 2 1 E 0,0
14.02.2019 03:00:00 -2,6 -8,9 4 2 E 0,0
14.02.2019 02:00:00 -2,2 -8,9 2 1 SSE 0,0
14.02.2019 01:00:00 -2,6 -8,9 2 1 NE 0,0
14.02.2019 00:00:00 -2,0 -9,0 3 2 E 0,0
13.02.2019 23:00:00 -1,8 -9,2 2 1 SSW 0,0
13.02.2019 22:00:00 -1,5 -9,2 2 1 E 0,0
13.02.2019 21:00:00 -1,0 -8,7 0 0 N 0,0
13.02.2019 20:00:00 -0,3 -8,3 3 1 ESE 0,0
13.02.2019 19:00:00 1,1 -8,2 0 0 N 0,0
13.02.2019 18:00:00 2,6 -7,9 0 0 N 0,0
13.02.2019 17:00:00 8,9 -10,1 4 2 ESE 0,0
13.02.2019 16:00:00 9,3 -10,3 3 2 N 0,0
13.02.2019 15:00:00 10,7 -10,8 6 3 WSW 0,0
13.02.2019 14:00:00 11,1 -13,1 6 4 SW 0,0
13.02.2019 13:00:00 9,7 -10,5 4 2 SW 0,0
13.02.2019 12:00:00 5,0 -9,2 0 0 N 0,0
13.02.2019 11:00:00 0,6 -10,0 2 1 E 0,0
13.02.2019 10:00:00 -3,0 -10,8 3 2 ESE 0,0
13.02.2019 09:00:00 -3,7 -12,1 4 2 NE 0,0
13.02.2019 08:00:00 -4,4 -12,8 3 1 NE 0,0
13.02.2019 07:00:00 -4,3 -13,4 2 1 E 0,0
13.02.2019 06:00:00 -4,3 -13,4 2 1 NNE 0,0
13.02.2019 05:00:00 -4,2 -14,1 2 1 E 0,0
13.02.2019 04:00:00 -4,3 -13,7 2 1 SSE 0,0
13.02.2019 03:00:00 -4,0 -14,5 0 0 N 0,0
13.02.2019 02:00:00 -3,7 -13,9 3 1 ENE 0,0
13.02.2019 01:00:00 -4,0 -14,5 2 1 NNE 0,0
13.02.2019 00:00:00 -2,0 -14,8 8 4 NE 0,0
12.02.2019 23:00:00 -2,7 -15,4 5 3 NNE 0,0
12.02.2019 22:00:00 -2,7 -15,7 3 1 S 0,0
12.02.2019 21:00:00 -1,7 -15,2 2 1 SE 0,0
12.02.2019 20:00:00 2,7 -18,7 19 10 ENE 0,0
12.02.2019 19:00:00 3,2 -18,9 16 9 ENE 0,0
12.02.2019 18:00:00 5,9 -23,5 13 7 ENE 0,0
12.02.2019 17:00:00 6,5 -24,2 12 6 NNE 0,0
12.02.2019 16:00:00 7,0 -23,8 8 5 NNE 0,0
12.02.2019 15:00:00 9,0 -20,0 7 4 N 0,0
12.02.2019 14:00:00 7,9 -15,7 2 1 SSE 0,0
12.02.2019 13:00:00 6,1 -17,9 0 0 N 0,0
12.02.2019 12:00:00 0,8 -12,3 3 1 NE 0,0
12.02.2019 11:00:00 -2,7 -13,6 3 2 NNE 0,0
12.02.2019 10:00:00 -7,0 -14,5 3 1 ENE 0,0
12.02.2019 09:00:00 -7,5 -14,8 2 1 WSW 0,0
12.02.2019 08:00:00 -6,8 -15,0 6 4 S 0,0
12.02.2019 07:00:00 -6,5 -14,3 4 2 SSE 0,0
12.02.2019 06:00:00 -2,9 -14,9 21 11 E 0,0
12.02.2019 05:00:00 -3,9 -14,4 29 16 ENE 0,0
12.02.2019 04:00:00 -2,4 -13,9 29 16 E 0,0
12.02.2019 03:00:00 -1,8 -13,6 19 10 E 0,0
12.02.2019 02:00:00 -3,0 -13,3 26 14 ENE 0,0
12.02.2019 01:00:00 -3,0 -12,7 10 5 E 0,0
12.02.2019 00:00:00 -1,6 -13,2 19 10 ENE 0,0
11.02.2019 23:00:00 -1,2 -13,7 11 6 E 0,0
11.02.2019 22:00:00 -0,6 -12,6 13 7 NE 0,0
11.02.2019 21:00:00 -0,6 -11,4 12 6 N 0,0
11.02.2019 20:00:00 -1,1 -11,5 9 5 NE 0,0
11.02.2019 19:00:00 -0,8 -11,0 14 8 NE 0,0
11.02.2019 18:00:00 -1,2 -9,3 7 4 SE 0,0
11.02.2019 17:00:00 0,0 -10,8 6 3 N 0,0
11.02.2019 16:00:00 0,7 -9,9 9 5 N 0,0

tt = Température de l'air
td = dewpoint
ff = Vitesse du vent
dd = Direction du vent
rr = Quantités de précipitations

stations d'obs. à proximité